aviador You're here:

MMZO Decoded Metar

MANZANILLO in MEXICO
Report Time2018-07-21 17:41:00
UTC Time2018-07-21 18:58:33
Flight Rules Old
Wind200° at 06 kt
W.Decomp.*RWY 28: 0.3 kt HW 6 kt LCW
W.Rank200° ranks 12
Current wind is below 200° avg. (7.2)
Visibility9999 m
Phenomena:N/A
Clouds:Few 250 Hf
Expected CloudBase > 2,800 ft AGL from Temp-Dew spread
CeilingNone
Temp33°C (ISA +18)
Dew Point26°C (67% RH)
Heat Index42.2°C
QNH1013 hPa
Density Alt2,523 ft
Elevation26 ft
Report Wrong Elevation
Raw Report
MMZO 211741Z 20006KT 10SM FEW250 33/26 A2991 RMK SLP114 5//// 9//
8/004=

Extra information for MMZO:More info

Metar Taf Metar & Taf Last 4 Metars F.Rules Stats Wind Profile Meteogram Temp Stats Airport Information Weather charts Add Link Nearby VenuesMetar ALERT Operation Metar Decoded Social comments